Other Surface Observations
Issued by NWS Great Falls, MT

Home | Current Version | Previous Version | Text Only | Print | Product List | Glossary On
Versions: 1 2 3 4 5 6 7 8 9 10 11 12 13 14 15 16 17 18 19 20 21 22 23 24 25 26 27 28 29 30 31 32 33 34 35 36 37 38 39 40 41 42 43 44 45 46 47 48 49 50
000
SXUS55 KTFX 260706
OSOTFX
AREA AWOS OBSERVATIONS
NATIONAL WEATHER SERVICE GREAT FALLS MT
1205 AM MST MON JAN 26 2015

METAR KPWD 260700Z AUTO 29008KT 10SM 04/00 A2986 RMK PLENTYWOOD
METAR KPO1 260700Z AUTO 10SM 03/01 A2992 RMK POPLAR
METAR K1S3 260700Z AUTO 24006KT 10SM 06/M01 A3000 RMK FORSYTH
METAR KS71 260700Z AUTO 29010G14KT 10SM 05/01 A2996 RMK CHINOOK
METAR K6S0 260700Z AUTO 24011G23KT 10SM 11/M03 A3020 RMK BIG TIMBER
METAR K38S 260700Z AUTO 21008KT 10SM 06/M02 A3028 RMK DEER LODGE
METAR K3U3 260700Z AUTO 20010KT 10SM 08/M04 A3026 RMK ANACONDA
METAR K6S5 260700Z AUTO 16013KT 10SM 09/M03 A3024 RMK HAMILTON
METAR KS59 260700Z AUTO 00000KT 10SM M02/M02 A3021 RMK LIBBY
METAR K88M 260700Z AUTO 00000KT 10SM 02/M01 A3016 RMK EUREKA



USA.gov is the U.S. government's official web portal to all federal, state and local government web resources and services.